FR-0302 weather

Praz Sauge Et Pre Vernay Airport
St Jean D'Arves, Rhône Alpes, France

Public forecast

Using degrees Celsius for public forecast. Weather courtesy of forecast.io.

METAR (pilot weather report)

Closest report is Chambéry-Savoie Airport, 31.2 nm (57.8 km) NNW. Retrieved 2019/09/21 01:30 UTC (2 minutes ago):

LFLB 210130Z AUTO VRB02KT CAVOK 13/09 Q1021 NOSIG

TAF (pilot weather forecast)

Forecast is more than 12 hours old.

Closest forecast is Chambéry-Savoie Airport, 31.2 nm (57.8 km) NNW. Retrieved 2019/09/20 00:21 UTC (1 day ago):

TAF LFLB 202300Z 2100/2124 VRB03KT CAVOK TEMPO 2100/2104 36010KT